createdAt,value
2022-07-25T00:00:31.090Z,15.50
2022-07-25T00:01:35.909Z,15.51
2022-07-25T00:02:40.447Z,15.50
2022-07-25T00:03:42.356Z,15.50
2022-07-25T00:04:47.519Z,15.48
2022-07-25T00:05:49.536Z,15.50
2022-07-25T00:06:53.987Z,15.47
2022-07-25T00:07:55.839Z,15.47
2022-07-25T00:09:00.298Z,15.47
2022-07-25T00:10:02.141Z,15.48
2022-07-25T00:11:06.651Z,15.46
2022-07-25T00:12:08.655Z,15.46
2022-07-25T00:13:15.732Z,15.45
2022-07-25T00:14:20.137Z,15.45
2022-07-25T00:15:21.931Z,15.42
2022-07-25T00:16:26.405Z,15.41
2022-07-25T00:17:28.280Z,15.40
2022-07-25T00:18:32.847Z,15.37
2022-07-25T00:19:34.644Z,15.34
2022-07-25T00:20:39.018Z,15.34
2022-07-25T00:21:40.807Z,15.34
2022-07-25T00:22:45.224Z,15.32
2022-07-25T00:23:47.081Z,15.33
2022-07-25T00:24:51.476Z,15.31
2022-07-25T00:25:53.356Z,15.30
2022-07-25T00:26:57.759Z,15.27
2022-07-25T00:27:59.588Z,15.26
2022-07-25T00:29:04.038Z,15.25
2022-07-25T00:30:06.153Z,15.22
2022-07-25T00:31:10.649Z,15.20
2022-07-25T00:32:12.682Z,15.19
2022-07-25T00:33:17.086Z,15.18
2022-07-25T00:34:18.971Z,15.17
2022-07-25T00:35:23.608Z,15.10
2022-07-25T00:36:25.465Z,15.07
2022-07-25T00:37:29.926Z,15.04
2022-07-25T00:38:31.714Z,15.03
2022-07-25T00:39:36.510Z,15.03
2022-07-25T00:40:38.537Z,15.01
2022-07-25T00:41:44.718Z,14.99
2022-07-25T00:42:46.575Z,14.99
2022-07-25T00:43:50.956Z,14.98
2022-07-25T00:44:52.745Z,14.97
2022-07-25T00:45:58.798Z,14.94
2022-07-25T00:47:01.401Z,14.94
2022-07-25T00:48:06.007Z,14.92
2022-07-25T00:49:07.871Z,14.92
2022-07-25T00:50:12.341Z,14.91
2022-07-25T00:51:14.165Z,14.90
2022-07-25T00:52:18.708Z,14.88
2022-07-25T00:53:21.121Z,14.89
2022-07-25T00:54:25.647Z,14.87
2022-07-25T00:55:27.494Z,14.86
2022-07-25T00:56:31.883Z,14.85
2022-07-25T00:57:33.735Z,14.85
2022-07-25T00:58:38.169Z,14.83
2022-07-25T00:59:40.027Z,14.82
2022-07-25T01:00:44.476Z,14.78
2022-07-25T01:01:48.474Z,14.77
2022-07-25T01:02:53.207Z,14.74
2022-07-25T01:03:55.188Z,14.73
2022-07-25T01:04:59.885Z,14.73
2022-07-25T01:06:01.875Z,14.71
2022-07-25T01:07:06.257Z,14.68
2022-07-25T01:08:08.513Z,14.66
2022-07-25T01:09:13.006Z,14.64
2022-07-25T01:10:14.838Z,14.63
2022-07-25T01:11:19.239Z,14.61
2022-07-25T01:12:21.060Z,14.58
2022-07-25T01:13:25.658Z,14.56
2022-07-25T01:14:27.531Z,14.54
2022-07-25T01:15:32.135Z,14.52
2022-07-25T01:16:34.018Z,14.50
2022-07-25T01:17:38.444Z,14.47
2022-07-25T01:18:40.235Z,14.47
2022-07-25T01:19:46.433Z,14.46
2022-07-25T01:20:48.332Z,14.46
2022-07-25T01:21:52.744Z,14.44
2022-07-25T01:22:54.857Z,14.43
2022-07-25T01:23:59.235Z,14.43
2022-07-25T01:25:01.286Z,14.41
2022-07-25T01:26:05.852Z,14.40
2022-07-25T01:27:07.666Z,14.41
2022-07-25T01:28:21.495Z,14.40
2022-07-25T01:29:23.281Z,14.37
2022-07-25T01:30:27.763Z,14.37
2022-07-25T01:31:29.906Z,14.36
2022-07-25T01:32:34.370Z,14.35
2022-07-25T01:33:36.170Z,14.33
2022-07-25T01:34:40.648Z,14.33
2022-07-25T01:35:43.609Z,14.31
2022-07-25T01:36:48.199Z,14.30
2022-07-25T01:37:50.083Z,14.30
2022-07-25T01:38:54.544Z,14.31
2022-07-25T01:39:56.350Z,14.29
2022-07-25T01:41:00.804Z,14.28
2022-07-25T01:42:03.341Z,14.27
2022-07-25T01:43:07.757Z,14.24
2022-07-25T01:44:09.895Z,14.25
2022-07-25T01:45:15.265Z,14.23
2022-07-25T01:46:17.254Z,14.22
2022-07-25T01:47:21.735Z,14.20
2022-07-25T01:48:26.207Z,14.21
2022-07-25T01:49:28.096Z,14.21
2022-07-25T01:50:34.242Z,14.20
2022-07-25T01:51:36.124Z,14.19
2022-07-25T01:52:40.696Z,14.18
2022-07-25T01:53:43.482Z,14.17
2022-07-25T01:54:49.606Z,14.18
2022-07-25T01:55:51.423Z,14.16
2022-07-25T01:56:56.681Z,14.17
2022-07-25T01:57:58.591Z,14.17
2022-07-25T01:59:04.111Z,14.17
2022-07-25T02:00:06.716Z,14.17
2022-07-25T02:01:16.401Z,14.17
2022-07-25T02:02:18.246Z,14.16
2022-07-25T02:03:34.578Z,14.16
2022-07-25T02:04:36.676Z,14.15
2022-07-25T02:05:41.173Z,14.14
2022-07-25T02:06:43.190Z,14.14
2022-07-25T02:07:47.656Z,14.12
2022-07-25T02:08:49.901Z,14.12
2022-07-25T02:09:56.892Z,14.10
2022-07-25T02:10:58.989Z,14.09
2022-07-25T02:12:03.393Z,14.09
2022-07-25T02:13:05.309Z,14.07
2022-07-25T02:14:10.032Z,14.08
2022-07-25T02:15:11.893Z,14.06
2022-07-25T02:16:16.499Z,14.07
2022-07-25T02:17:18.377Z,14.06
2022-07-25T02:18:22.835Z,14.04
2022-07-25T02:19:24.701Z,14.02
2022-07-25T02:20:29.104Z,14.02
2022-07-25T02:21:30.932Z,14.02
2022-07-25T02:22:35.367Z,14.01
2022-07-25T02:23:37.337Z,14.00
2022-07-25T02:24:41.766Z,13.97
2022-07-25T02:25:43.587Z,13.98
2022-07-25T02:26:48.130Z,13.98
2022-07-25T02:27:49.936Z,13.97
2022-07-25T02:28:54.318Z,13.96
2022-07-25T02:29:56.168Z,13.96
2022-07-25T02:31:01.295Z,13.95
2022-07-25T02:32:03.432Z,13.96
2022-07-25T02:33:07.896Z,13.95
2022-07-25T02:34:10.023Z,13.95
2022-07-25T02:35:14.609Z,13.95
2022-07-25T02:36:19.069Z,13.91
2022-07-25T02:37:20.918Z,13.92
2022-07-25T02:38:25.362Z,13.90
2022-07-25T02:39:27.310Z,13.91
2022-07-25T02:40:31.740Z,13.90
2022-07-25T02:41:33.608Z,13.91
2022-07-25T02:42:37.995Z,13.91
2022-07-25T02:43:42.435Z,13.92
2022-07-25T02:44:44.222Z,13.93
2022-07-25T02:45:49.022Z,13.93
2022-07-25T02:46:50.933Z,13.92
2022-07-25T02:47:55.493Z,13.93
2022-07-25T02:48:59.192Z,13.94
2022-07-25T02:50:03.748Z,13.93
2022-07-25T02:51:08.308Z,13.95
2022-07-25T02:52:10.129Z,13.96
2022-07-25T02:53:14.518Z,13.98
2022-07-25T02:54:20.194Z,13.99
2022-07-25T02:55:22.036Z,14.02
2022-07-25T02:56:29.958Z,14.04
2022-07-25T02:57:33.917Z,14.07
2022-07-25T02:58:39.355Z,14.12
2022-07-25T02:59:41.793Z,14.18
2022-07-25T03:00:46.188Z,14.28
2022-07-25T03:01:48.146Z,14.41
2022-07-25T03:02:52.767Z,14.57
2022-07-25T03:03:54.643Z,14.76
2022-07-25T03:04:59.106Z,14.99
2022-07-25T03:06:00.963Z,15.23
2022-07-25T03:07:05.346Z,15.45
2022-07-25T03:08:07.138Z,15.71
2022-07-25T03:09:11.635Z,15.97
2022-07-25T03:10:13.869Z,16.26
2022-07-25T03:11:18.463Z,16.53
2022-07-25T03:12:20.613Z,16.85
2022-07-25T03:13:25.040Z,17.11
2022-07-25T03:14:27.135Z,17.40
2022-07-25T03:15:31.630Z,17.68
2022-07-25T03:16:33.453Z,17.97
2022-07-25T03:17:37.947Z,18.25
2022-07-25T03:18:39.801Z,18.58
2022-07-25T03:19:44.307Z,18.86
2022-07-25T03:20:46.133Z,19.19
2022-07-25T03:21:50.533Z,19.51
2022-07-25T03:22:52.465Z,19.87
2022-07-25T03:23:56.876Z,20.19
2022-07-25T03:24:59.289Z,20.52
2022-07-25T03:26:03.769Z,20.79
2022-07-25T03:27:08.178Z,21.03
2022-07-25T03:28:10.080Z,21.30
2022-07-25T03:29:14.519Z,21.61
2022-07-25T03:30:16.376Z,21.92
2022-07-25T03:31:21.907Z,22.20
2022-07-25T03:32:23.888Z,22.54
2022-07-25T03:33:28.290Z,22.85
2022-07-25T03:34:30.176Z,23.16
2022-07-25T03:35:35.319Z,23.45
2022-07-25T03:36:39.840Z,23.75
2022-07-25T03:37:41.807Z,24.08
2022-07-25T03:38:46.195Z,24.36
2022-07-25T03:39:48.195Z,24.65
2022-07-25T03:40:52.610Z,24.93
2022-07-25T03:41:54.609Z,25.22
2022-07-25T03:42:59.084Z,25.52
2022-07-25T03:44:00.928Z,25.83
2022-07-25T03:45:05.399Z,26.14
2022-07-25T03:46:07.302Z,26.41
2022-07-25T03:47:11.753Z,26.67
2022-07-25T03:48:22.608Z,26.94
2022-07-25T03:49:26.990Z,27.16
2022-07-25T03:50:28.837Z,27.43
2022-07-25T03:51:33.259Z,27.69
2022-07-25T03:52:35.075Z,27.96
2022-07-25T03:53:59.563Z,28.19
2022-07-25T03:55:01.366Z,28.52
2022-07-25T03:56:05.779Z,28.80
2022-07-25T03:57:07.623Z,29.08
2022-07-25T03:58:12.040Z,29.32
2022-07-25T03:59:15.553Z,29.57
2022-07-25T04:00:20.397Z,29.83
2022-07-25T04:01:22.390Z,30.09
2022-07-25T04:02:27.358Z,30.33
2022-07-25T04:03:29.990Z,30.60
2022-07-25T04:04:34.373Z,30.90
2022-07-25T04:05:36.165Z,31.18
2022-07-25T04:06:40.793Z,31.42
2022-07-25T04:07:42.600Z,31.65
2022-07-25T04:08:47.008Z,31.87
2022-07-25T04:09:48.889Z,32.11
2022-07-25T04:10:53.271Z,32.31
2022-07-25T04:11:55.136Z,32.54
2022-07-25T04:12:59.650Z,32.73
2022-07-25T04:14:02.787Z,32.94
2022-07-25T04:15:07.535Z,33.17
2022-07-25T04:16:15.006Z,33.35
2022-07-25T04:17:26.605Z,33.61
2022-07-25T04:18:28.738Z,33.79
2022-07-25T04:19:33.355Z,33.94
2022-07-25T04:20:37.587Z,34.15
2022-07-25T04:21:42.104Z,34.40
2022-07-25T04:22:46.956Z,34.64
2022-07-25T04:23:52.015Z,34.90
2022-07-25T04:24:54.153Z,35.07
2022-07-25T04:25:59.003Z,35.20
2022-07-25T04:27:03.428Z,35.33
2022-07-25T04:28:05.223Z,35.43
2022-07-25T04:29:09.612Z,35.54
2022-07-25T04:30:11.824Z,35.64
2022-07-25T04:31:16.310Z,35.73
2022-07-25T04:32:23.283Z,35.76
2022-07-25T04:33:28.070Z,35.97
2022-07-25T04:34:29.901Z,36.14
2022-07-25T04:35:34.362Z,36.26
2022-07-25T04:36:36.182Z,36.38
2022-07-25T04:37:40.566Z,36.50
2022-07-25T04:38:42.389Z,36.61
2022-07-25T04:39:46.801Z,36.72
2022-07-25T04:40:48.650Z,36.84
2022-07-25T04:41:53.066Z,36.95
2022-07-25T04:42:54.865Z,37.03
2022-07-25T04:43:59.266Z,37.12
2022-07-25T04:45:01.125Z,37.20
2022-07-25T04:46:05.686Z,37.23
2022-07-25T04:47:07.575Z,37.29
2022-07-25T04:48:12.227Z,37.36
2022-07-25T04:49:14.144Z,37.33
2022-07-25T04:50:23.049Z,37.25
2022-07-25T04:51:26.774Z,37.19
2022-07-25T04:52:31.152Z,37.18
2022-07-25T04:53:32.977Z,37.15
2022-07-25T04:54:37.402Z,37.13
2022-07-25T04:55:39.205Z,37.12
2022-07-25T04:56:43.677Z,37.12
2022-07-25T04:57:47.129Z,37.15
2022-07-25T04:58:51.623Z,37.17
2022-07-25T04:59:53.413Z,37.21
2022-07-25T05:00:58.727Z,37.24
2022-07-25T05:02:00.612Z,37.30
2022-07-25T05:03:05.141Z,37.30
2022-07-25T05:04:07.801Z,37.19
2022-07-25T05:05:21.686Z,37.03
2022-07-25T05:06:24.169Z,36.79
2022-07-25T05:07:28.608Z,36.45
2022-07-25T05:08:30.474Z,36.22
2022-07-25T05:09:35.029Z,35.93
2022-07-25T05:10:36.848Z,35.15
2022-07-25T05:11:46.611Z,33.63
2022-07-25T05:12:49.753Z,32.03
2022-07-25T05:13:54.330Z,31.08
2022-07-25T05:14:56.245Z,30.25
2022-07-25T05:16:00.707Z,29.52
2022-07-25T05:17:02.621Z,28.85
2022-07-25T05:18:07.443Z,28.28
2022-07-25T05:19:09.830Z,27.79
2022-07-25T05:20:14.830Z,27.35
2022-07-25T05:21:19.321Z,26.93
2022-07-25T05:22:25.117Z,26.54
2022-07-25T05:23:32.715Z,26.17
2022-07-25T05:24:35.269Z,25.86
2022-07-25T05:25:39.698Z,25.55
2022-07-25T05:26:41.618Z,25.26
2022-07-25T05:27:46.086Z,25.00
2022-07-25T05:28:48.010Z,24.76
2022-07-25T05:29:52.510Z,24.53
2022-07-25T05:30:54.393Z,24.28
2022-07-25T05:31:58.965Z,24.08
2022-07-25T05:33:01.096Z,23.90
2022-07-25T05:34:06.184Z,23.76
2022-07-25T05:35:08.612Z,23.61
2022-07-25T05:36:13.084Z,23.49
2022-07-25T05:37:15.051Z,23.37
2022-07-25T05:38:19.454Z,23.25
2022-07-25T05:39:22.636Z,23.17
2022-07-25T05:40:27.131Z,23.07
2022-07-25T05:41:28.913Z,22.99
2022-07-25T05:42:34.335Z,22.92
2022-07-25T05:43:38.770Z,22.85
2022-07-25T05:44:40.575Z,22.79
2022-07-25T05:45:47.398Z,22.74
2022-07-25T05:46:49.391Z,22.71
2022-07-25T05:47:54.190Z,22.67
2022-07-25T05:48:56.082Z,22.63
2022-07-25T05:50:00.464Z,22.58
2022-07-25T05:51:02.895Z,22.55
2022-07-25T05:52:12.454Z,22.53
2022-07-25T05:53:17.590Z,22.50
2022-07-25T05:54:19.453Z,22.48
2022-07-25T05:55:23.914Z,22.46
2022-07-25T05:56:25.787Z,22.46
2022-07-25T05:57:30.357Z,22.44
2022-07-25T05:58:32.167Z,22.44
2022-07-25T05:59:36.634Z,22.42
2022-07-25T06:00:41.261Z,22.42
2022-07-25T06:01:43.356Z,22.41
2022-07-25T06:02:48.146Z,22.42
2022-07-25T06:03:49.997Z,22.41
2022-07-25T06:04:54.624Z,22.41
2022-07-25T06:05:56.608Z,22.42
2022-07-25T06:07:01.044Z,22.44
2022-07-25T06:08:02.860Z,22.45
2022-07-25T06:09:08.025Z,22.45
2022-07-25T06:10:10.117Z,22.45
2022-07-25T06:11:14.605Z,22.45
2022-07-25T06:12:16.401Z,22.47
2022-07-25T06:13:21.013Z,22.48
2022-07-25T06:14:25.601Z,22.48
2022-07-25T06:15:31.478Z,22.49
2022-07-25T06:16:35.626Z,22.52
2022-07-25T06:17:40.110Z,22.52
2022-07-25T06:18:42.111Z,22.55
2022-07-25T06:19:46.502Z,22.57
2022-07-25T06:20:49.303Z,22.60
2022-07-25T06:21:53.723Z,22.64
2022-07-25T06:22:55.573Z,22.68
2022-07-25T06:24:00.127Z,22.71
2022-07-25T06:25:02.624Z,22.73
2022-07-25T06:26:07.017Z,22.76
2022-07-25T06:27:11.546Z,22.79
2022-07-25T06:28:14.731Z,22.80
2022-07-25T06:29:22.843Z,22.82
2022-07-25T06:30:24.670Z,22.84
2022-07-25T06:31:29.801Z,22.85
2022-07-25T06:32:31.646Z,22.88
2022-07-25T06:33:36.071Z,22.94
2022-07-25T06:34:38.619Z,22.99
2022-07-25T06:35:43.197Z,23.03
2022-07-25T06:36:45.004Z,23.05
2022-07-25T06:37:49.482Z,23.09
2022-07-25T06:38:51.356Z,23.05
2022-07-25T06:39:55.881Z,23.14
2022-07-25T06:40:57.737Z,23.18
2022-07-25T06:42:04.209Z,23.20
2022-07-25T06:43:09.147Z,23.23
2022-07-25T06:44:13.570Z,23.24
2022-07-25T06:45:15.569Z,23.25
2022-07-25T06:46:20.047Z,23.28
2022-07-25T06:47:22.005Z,23.30
2022-07-25T06:48:27.498Z,23.34
2022-07-25T06:49:32.451Z,23.37
2022-07-25T06:50:34.328Z,23.41
2022-07-25T06:51:38.714Z,23.45
2022-07-25T06:52:40.799Z,23.49
2022-07-25T06:53:45.249Z,23.53
2022-07-25T06:54:50.688Z,23.58
2022-07-25T06:55:55.147Z,23.64
2022-07-25T06:56:56.997Z,23.69
2022-07-25T06:58:01.464Z,23.73
2022-07-25T06:59:03.266Z,23.79
2022-07-25T07:00:09.812Z,23.80
2022-07-25T07:01:14.363Z,23.83
2022-07-25T07:02:16.241Z,23.86
2022-07-25T07:03:21.396Z,23.89
2022-07-25T07:04:26.026Z,23.91
2022-07-25T07:05:31.315Z,23.91
2022-07-25T07:06:36.706Z,23.96
2022-07-25T07:07:38.627Z,23.97
2022-07-25T07:08:43.062Z,23.99
2022-07-25T07:09:45.055Z,23.93
2022-07-25T07:10:49.469Z,24.07
2022-07-25T07:11:53.892Z,24.12
2022-07-25T07:13:05.619Z,24.15
2022-07-25T07:14:12.413Z,24.18
2022-07-25T07:15:14.506Z,24.23
2022-07-25T07:16:18.981Z,24.25
2022-07-25T07:17:20.860Z,24.27
2022-07-25T07:18:25.464Z,24.29
2022-07-25T07:19:27.339Z,24.29
2022-07-25T07:20:31.807Z,24.32
2022-07-25T07:21:36.244Z,24.34
2022-07-25T07:22:45.207Z,24.30
2022-07-25T07:23:49.801Z,24.39
2022-07-25T07:24:55.634Z,24.42
2022-07-25T07:26:00.299Z,24.48
2022-07-25T07:27:02.102Z,24.46
2022-07-25T07:28:06.906Z,24.56
2022-07-25T07:29:09.054Z,24.60
2022-07-25T07:30:14.947Z,24.59
2022-07-25T07:31:20.392Z,24.68
2022-07-25T07:32:22.360Z,24.70
2022-07-25T07:33:26.852Z,24.69
2022-07-25T07:34:28.665Z,24.69
2022-07-25T07:35:34.823Z,24.65
2022-07-25T07:36:40.487Z,24.72
2022-07-25T07:37:43.785Z,24.72
2022-07-25T07:38:48.445Z,24.72
2022-07-25T07:39:51.524Z,24.75
2022-07-25T07:40:56.129Z,24.78
2022-07-25T07:41:57.932Z,24.82
2022-07-25T07:43:03.821Z,24.86
2022-07-25T07:44:05.805Z,24.90
2022-07-25T07:45:14.083Z,24.95
2022-07-25T07:46:18.749Z,24.99
2022-07-25T07:47:21.808Z,25.29
2022-07-25T07:48:26.239Z,25.44
2022-07-25T07:49:30.713Z,25.35
2022-07-25T07:50:41.511Z,25.26
2022-07-25T07:51:43.319Z,25.08
2022-07-25T07:52:48.226Z,25.06
2022-07-25T07:54:05.119Z,25.08
2022-07-25T07:55:22.378Z,25.08
2022-07-25T07:56:27.521Z,25.45
2022-07-25T07:57:29.686Z,25.24
2022-07-25T07:58:34.093Z,25.71
2022-07-25T07:59:36.132Z,25.41
2022-07-25T08:00:40.858Z,25.45
2022-07-25T08:01:45.296Z,25.47
2022-07-25T08:02:48.232Z,25.47
2022-07-25T08:03:52.714Z,25.52
2022-07-25T08:04:54.894Z,25.54
2022-07-25T08:05:59.461Z,25.58
2022-07-25T08:07:01.259Z,25.63
2022-07-25T08:08:06.026Z,25.65
2022-07-25T08:09:08.684Z,25.67
2022-07-25T08:10:13.375Z,25.67
2022-07-25T08:11:17.794Z,26.06
2022-07-25T08:12:21.213Z,25.79
2022-07-25T08:13:26.574Z,25.77
2022-07-25T08:14:31.030Z,25.75
2022-07-25T08:15:35.971Z,25.74
2022-07-25T08:16:40.481Z,25.71
2022-07-25T08:17:42.375Z,26.15
2022-07-25T08:18:47.389Z,25.79
2022-07-25T08:19:49.202Z,25.66
2022-07-25T08:20:54.704Z,25.59
2022-07-25T08:21:59.181Z,25.56
2022-07-25T08:23:03.832Z,25.54
2022-07-25T08:24:09.734Z,25.51
2022-07-25T08:25:15.654Z,25.54
2022-07-25T08:26:27.897Z,25.56
2022-07-25T08:27:29.852Z,25.61
2022-07-25T08:28:34.473Z,25.60
2022-07-25T08:29:36.252Z,25.60
2022-07-25T08:30:41.137Z,25.62
2022-07-25T08:31:42.963Z,25.86
2022-07-25T08:32:54.884Z,25.75
2022-07-25T08:33:56.731Z,25.77
2022-07-25T08:35:02.161Z,25.82
2022-07-25T08:36:06.600Z,25.87
2022-07-25T08:37:08.467Z,25.96
2022-07-25T08:38:13.820Z,26.00
2022-07-25T08:39:15.950Z,26.03
2022-07-25T08:40:21.410Z,26.05
2022-07-25T08:41:25.794Z,26.09
2022-07-25T08:42:30.542Z,26.63
2022-07-25T08:43:37.803Z,26.73
2022-07-25T08:44:40.938Z,26.79
2022-07-25T08:45:49.129Z,26.84
2022-07-25T08:46:51.020Z,26.41
2022-07-25T08:47:56.763Z,26.37
2022-07-25T08:48:59.363Z,26.29
2022-07-25T08:50:05.435Z,26.28
2022-07-25T08:51:09.875Z,26.29
2022-07-25T08:52:11.740Z,26.28
2022-07-25T08:53:32.611Z,26.28
2022-07-25T08:54:38.456Z,26.29
2022-07-25T08:55:45.210Z,26.32
2022-07-25T08:56:49.604Z,26.35
2022-07-25T08:57:52.692Z,26.38
2022-07-25T08:58:59.039Z,26.42
2022-07-25T09:00:00.900Z,26.41
2022-07-25T09:01:05.566Z,26.42
2022-07-25T09:02:16.550Z,26.44
2022-07-25T09:03:21.165Z,26.47
2022-07-25T09:04:23.253Z,26.46
2022-07-25T09:05:27.973Z,26.49
2022-07-25T09:06:32.430Z,26.50
2022-07-25T09:07:38.330Z,26.48
2022-07-25T09:08:52.981Z,26.48
2022-07-25T09:09:57.368Z,26.49
2022-07-25T09:11:01.760Z,26.51
2022-07-25T09:12:07.691Z,26.50
2022-07-25T09:13:14.178Z,26.52
2022-07-25T09:14:18.623Z,26.50
2022-07-25T09:15:27.460Z,26.55
2022-07-25T09:16:35.447Z,26.59
2022-07-25T09:17:39.923Z,26.61
2022-07-25T09:18:43.707Z,26.63
2022-07-25T09:19:54.577Z,26.64
2022-07-25T09:21:00.341Z,26.65
2022-07-25T09:22:02.230Z,26.64
2022-07-25T09:23:07.307Z,26.64
2022-07-25T09:24:14.243Z,26.60
2022-07-25T09:25:29.959Z,26.61
2022-07-25T09:26:31.811Z,26.64
2022-07-25T09:27:37.026Z,26.64
2022-07-25T09:28:42.469Z,26.67
2022-07-25T09:29:46.879Z,26.71
2022-07-25T09:30:57.819Z,26.74
2022-07-25T09:32:00.113Z,26.77
2022-07-25T09:33:04.565Z,26.81
2022-07-25T09:34:08.729Z,26.84
2022-07-25T09:35:13.522Z,27.35
2022-07-25T09:36:15.437Z,27.49
2022-07-25T09:37:20.828Z,27.56
2022-07-25T09:38:23.279Z,27.17
2022-07-25T09:39:39.698Z,27.19
2022-07-25T09:40:56.537Z,27.12
2022-07-25T09:41:58.380Z,27.56
2022-07-25T09:43:02.789Z,27.63
2022-07-25T09:44:05.543Z,27.68
2022-07-25T09:45:11.460Z,27.69
2022-07-25T09:46:13.409Z,27.71
2022-07-25T09:47:18.252Z,27.77
2022-07-25T09:48:22.857Z,27.80
2022-07-25T09:49:25.184Z,27.33
2022-07-25T09:50:30.309Z,27.27
2022-07-25T09:51:32.172Z,27.23
2022-07-25T09:52:36.884Z,27.22
2022-07-25T09:53:38.741Z,27.43
2022-07-25T09:54:43.386Z,27.16
2022-07-25T09:55:47.810Z,27.11
2022-07-25T09:56:49.658Z,27.51
2022-07-25T09:57:55.289Z,27.59
2022-07-25T09:58:58.134Z,27.55
2022-07-25T10:00:03.481Z,27.52
2022-07-25T10:01:17.135Z,26.96
2022-07-25T10:02:34.480Z,27.11
2022-07-25T10:03:53.612Z,26.89
2022-07-25T10:05:00.295Z,27.41
2022-07-25T10:06:04.874Z,27.47
2022-07-25T10:07:12.729Z,27.52
2022-07-25T10:08:17.499Z,27.53
2022-07-25T10:09:19.432Z,27.15
2022-07-25T10:10:28.331Z,27.28
2022-07-25T10:11:30.474Z,27.03
2022-07-25T10:12:34.886Z,26.93
2022-07-25T10:13:39.307Z,26.89
2022-07-25T10:14:41.341Z,26.90
2022-07-25T10:15:46.958Z,26.90
2022-07-25T10:16:48.855Z,27.18
2022-07-25T10:17:53.423Z,27.12
2022-07-25T10:18:58.826Z,27.09
2022-07-25T10:20:01.364Z,27.09
2022-07-25T10:21:25.728Z,27.12
2022-07-25T10:22:57.819Z,27.15
2022-07-25T10:24:03.710Z,27.18
2022-07-25T10:25:13.458Z,27.21
2022-07-25T10:26:19.743Z,27.22
2022-07-25T10:27:22.092Z,27.23
2022-07-25T10:28:26.534Z,27.20
2022-07-25T10:29:33.625Z,27.18
2022-07-25T10:30:38.050Z,27.14
2022-07-25T10:31:50.347Z,27.14
2022-07-25T10:32:56.463Z,27.15
2022-07-25T10:34:01.827Z,27.13
2022-07-25T10:35:12.446Z,27.09
2022-07-25T10:36:16.906Z,27.09
2022-07-25T10:37:21.415Z,27.12
2022-07-25T10:38:28.264Z,27.15
2022-07-25T10:39:39.803Z,27.16
2022-07-25T10:40:45.199Z,27.19
2022-07-25T10:41:55.852Z,27.21
2022-07-25T10:43:06.297Z,27.22
2022-07-25T10:44:15.275Z,27.24
2022-07-25T10:45:20.246Z,27.23
2022-07-25T10:46:23.501Z,27.25
2022-07-25T10:47:29.369Z,27.26
2022-07-25T10:48:32.443Z,27.27
2022-07-25T10:50:00.260Z,27.27
2022-07-25T10:51:11.845Z,27.33
2022-07-25T10:52:22.795Z,27.36
2022-07-25T10:53:30.408Z,27.36
2022-07-25T10:54:38.457Z,27.38
2022-07-25T10:55:40.928Z,27.37
2022-07-25T10:56:55.703Z,27.37
2022-07-25T10:58:21.612Z,27.37
2022-07-25T10:59:29.355Z,27.34
2022-07-25T11:00:31.210Z,27.34
2022-07-25T11:01:36.715Z,27.32
2022-07-25T11:02:38.653Z,27.31
2022-07-25T11:03:47.132Z,27.28
2022-07-25T11:05:02.175Z,27.27
2022-07-25T11:06:05.242Z,27.28
2022-07-25T11:07:12.750Z,27.29
2022-07-25T11:08:22.784Z,27.30
2022-07-25T11:09:29.136Z,27.29
2022-07-25T11:10:31.127Z,27.34
2022-07-25T11:11:43.326Z,27.32
2022-07-25T11:12:45.392Z,27.25
2022-07-25T11:13:50.276Z,27.29
2022-07-25T11:14:54.696Z,27.33
2022-07-25T11:15:57.268Z,27.37
2022-07-25T11:17:12.389Z,27.41
2022-07-25T11:18:14.283Z,27.47
2022-07-25T11:19:28.406Z,27.49
2022-07-25T11:20:32.800Z,27.55
2022-07-25T11:21:46.232Z,27.57
2022-07-25T11:22:54.359Z,27.59
2022-07-25T11:23:56.154Z,27.62
2022-07-25T11:25:00.728Z,27.65
2022-07-25T11:26:14.703Z,27.67
2022-07-25T11:27:27.326Z,27.70
2022-07-25T11:28:39.961Z,27.71
2022-07-25T11:29:44.357Z,27.71
2022-07-25T11:30:46.718Z,27.71
2022-07-25T11:31:54.729Z,27.66
2022-07-25T11:33:01.491Z,27.70
2022-07-25T11:34:05.867Z,27.70
2022-07-25T11:35:07.974Z,27.70
2022-07-25T11:36:13.767Z,27.68
2022-07-25T11:37:16.178Z,27.67
2022-07-25T11:38:21.164Z,27.65
2022-07-25T11:39:27.246Z,27.65
2022-07-25T11:40:32.837Z,27.65
2022-07-25T11:41:34.816Z,27.65
2022-07-25T11:42:43.441Z,27.65
2022-07-25T11:43:48.436Z,27.66
2022-07-25T11:44:54.570Z,27.69
2022-07-25T11:46:06.810Z,27.72
2022-07-25T11:47:31.854Z,27.76
2022-07-25T11:48:34.850Z,27.81
2022-07-25T11:49:49.139Z,27.86
2022-07-25T11:50:50.952Z,27.88
2022-07-25T11:51:55.391Z,27.92
2022-07-25T11:53:04.357Z,27.95
2022-07-25T11:54:13.458Z,27.99
2022-07-25T11:55:17.517Z,28.01
2022-07-25T11:56:42.057Z,28.04
2022-07-25T11:57:49.507Z,28.05
2022-07-25T11:58:58.992Z,28.09
2022-07-25T12:00:04.513Z,28.11
2022-07-25T12:01:13.439Z,28.11
2022-07-25T12:02:28.434Z,28.15
2022-07-25T12:03:37.352Z,28.18
2022-07-25T12:04:41.998Z,28.21
2022-07-25T12:05:43.955Z,28.23
2022-07-25T12:06:50.984Z,28.28
2022-07-25T12:07:53.505Z,28.31
2022-07-25T12:08:57.944Z,28.33
2022-07-25T12:09:59.768Z,28.30
2022-07-25T12:11:04.218Z,28.28
2022-07-25T12:12:08.775Z,28.27
2022-07-25T12:13:13.204Z,28.28
2022-07-25T12:14:15.680Z,28.29
2022-07-25T12:15:22.332Z,28.28
2022-07-25T12:16:24.234Z,28.28
2022-07-25T12:17:28.730Z,28.27
2022-07-25T12:18:33.120Z,28.25
2022-07-25T12:19:37.500Z,28.26
2022-07-25T12:20:41.199Z,28.27
2022-07-25T12:21:46.591Z,28.31
2022-07-25T12:22:51.729Z,28.34
2022-07-25T12:23:56.231Z,28.34
2022-07-25T12:25:00.710Z,28.32
2022-07-25T12:26:02.584Z,28.30
2022-07-25T12:27:07.143Z,28.29
2022-07-25T12:28:10.664Z,28.25
2022-07-25T12:29:15.097Z,28.25
2022-07-25T12:30:17.059Z,28.23
2022-07-25T12:31:21.528Z,28.23
2022-07-25T12:32:23.421Z,28.24
2022-07-25T12:33:27.825Z,28.28
2022-07-25T12:34:32.271Z,28.28
2022-07-25T12:35:34.193Z,28.31
2022-07-25T12:36:44.217Z,28.37
2022-07-25T12:37:46.121Z,28.41
2022-07-25T12:38:50.659Z,28.46
2022-07-25T12:39:52.973Z,28.51
2022-07-25T12:40:57.615Z,28.56
2022-07-25T12:42:02.023Z,28.52
2022-07-25T12:43:04.218Z,28.56
2022-07-25T12:44:08.716Z,28.55
2022-07-25T12:45:11.245Z,28.53
2022-07-25T12:46:15.737Z,28.52
2022-07-25T12:47:17.651Z,28.50
2022-07-25T12:48:22.107Z,28.48
2022-07-25T12:49:23.969Z,28.44
2022-07-25T12:50:28.551Z,28.38
2022-07-25T12:51:33.009Z,28.38
2022-07-25T12:52:35.019Z,28.37
2022-07-25T12:53:42.517Z,28.28
2022-07-25T12:54:44.979Z,28.30
2022-07-25T12:55:50.407Z,28.31
2022-07-25T12:56:52.191Z,28.34
2022-07-25T12:57:56.641Z,28.34
2022-07-25T12:58:58.461Z,28.37
2022-07-25T13:00:03.107Z,28.37
2022-07-25T13:01:08.214Z,28.37
2022-07-25T13:02:12.964Z,28.40
2022-07-25T13:03:15.424Z,28.42
2022-07-25T13:04:19.887Z,28.48
2022-07-25T13:05:22.366Z,28.53
2022-07-25T13:06:26.970Z,28.56
2022-07-25T13:07:29.580Z,28.60
2022-07-25T13:08:36.086Z,28.64
2022-07-25T13:09:37.903Z,28.66
2022-07-25T13:10:42.363Z,28.68
2022-07-25T13:11:44.185Z,28.71
2022-07-25T13:12:48.730Z,28.73
2022-07-25T13:13:50.597Z,28.72
2022-07-25T13:14:55.052Z,28.74
2022-07-25T13:15:59.568Z,28.74
2022-07-25T13:17:01.574Z,28.74
2022-07-25T13:18:06.972Z,28.76
2022-07-25T13:19:09.303Z,28.76
2022-07-25T13:20:15.733Z,28.78
2022-07-25T13:21:18.788Z,28.81
2022-07-25T13:22:23.253Z,28.84
2022-07-25T13:23:28.062Z,28.87
2022-07-25T13:24:29.991Z,28.91
2022-07-25T13:25:36.121Z,28.94
2022-07-25T13:26:38.137Z,28.97
2022-07-25T13:27:42.564Z,28.97
2022-07-25T13:28:44.390Z,28.98
2022-07-25T13:29:54.314Z,29.01
2022-07-25T13:31:01.669Z,29.00
2022-07-25T13:32:03.567Z,29.02
2022-07-25T13:33:10.618Z,29.03
2022-07-25T13:34:15.015Z,29.07
2022-07-25T13:35:20.479Z,29.07
2022-07-25T13:36:26.390Z,29.10
2022-07-25T13:37:30.863Z,29.11
2022-07-25T13:38:34.778Z,29.12
2022-07-25T13:39:39.739Z,29.14
2022-07-25T13:40:42.255Z,29.15
2022-07-25T13:41:47.220Z,29.17
2022-07-25T13:42:49.105Z,29.16
2022-07-25T13:43:53.988Z,29.17
2022-07-25T13:44:58.423Z,29.17
2022-07-25T13:46:00.279Z,29.17
2022-07-25T13:47:04.703Z,29.18
2022-07-25T13:48:28.299Z,29.17
2022-07-25T13:49:31.032Z,29.15
2022-07-25T13:50:35.922Z,29.14
2022-07-25T13:51:38.129Z,29.14
2022-07-25T13:52:42.532Z,29.15